sensor_id;sensor_type;location;lat;lon;timestamp;P1;durP1;ratioP1;P2;durP2;ratioP2
3991;SDS011;2010;48.194;16.394;2023-02-12T00:02:04;27.83;;;18.03;;
3991;SDS011;2010;48.194;16.394;2023-02-12T00:04:33;27.47;;;18.43;;
3991;SDS011;2010;48.194;16.394;2023-02-12T00:07:04;26.03;;;18.20;;
3991;SDS011;2010;48.194;16.394;2023-02-12T00:09:36;27.93;;;17.80;;
3991;SDS011;2010;48.194;16.394;2023-02-12T00:12:06;29.33;;;18.60;;
3991;SDS011;2010;48.194;16.394;2023-02-12T00:14:39;25.87;;;16.63;;
3991;SDS011;2010;48.194;16.394;2023-02-12T00:17:07;29.60;;;17.87;;
3991;SDS011;2010;48.194;16.394;2023-02-12T00:19:38;30.93;;;18.33;;
3991;SDS011;2010;48.194;16.394;2023-02-12T00:22:08;29.50;;;17.90;;
3991;SDS011;2010;48.194;16.394;2023-02-12T00:24:37;23.63;;;16.73;;
3991;SDS011;2010;48.194;16.394;2023-02-12T00:27:07;26.43;;;17.63;;
3991;SDS011;2010;48.194;16.394;2023-02-12T00:29:35;25.13;;;16.57;;
3991;SDS011;2010;48.194;16.394;2023-02-12T00:32:08;28.10;;;18.47;;
3991;SDS011;2010;48.194;16.394;2023-02-12T00:34:37;28.77;;;19.20;;
3991;SDS011;2010;48.194;16.394;2023-02-12T00:37:07;25.93;;;16.60;;
3991;SDS011;2010;48.194;16.394;2023-02-12T00:39:37;25.97;;;17.17;;
3991;SDS011;2010;48.194;16.394;2023-02-12T00:42:11;27.00;;;17.70;;
3991;SDS011;2010;48.194;16.394;2023-02-12T00:44:47;25.13;;;16.70;;
3991;SDS011;2010;48.194;16.394;2023-02-12T00:47:19;30.47;;;17.37;;
3991;SDS011;2010;48.194;16.394;2023-02-12T00:49:50;24.70;;;16.57;;
3991;SDS011;2010;48.194;16.394;2023-02-12T00:52:22;24.07;;;17.57;;
3991;SDS011;2010;48.194;16.394;2023-02-12T00:54:50;21.33;;;15.70;;
3991;SDS011;2010;48.194;16.394;2023-02-12T00:57:20;26.93;;;16.60;;
3991;SDS011;2010;48.194;16.394;2023-02-12T00:59:51;22.53;;;15.97;;
3991;SDS011;2010;48.194;16.394;2023-02-12T01:02:28;25.23;;;15.77;;
3991;SDS011;2010;48.194;16.394;2023-02-12T01:04:56;23.60;;;15.97;;
3991;SDS011;2010;48.194;16.394;2023-02-12T01:07:26;22.10;;;15.90;;
3991;SDS011;2010;48.194;16.394;2023-02-12T01:09:55;25.93;;;15.50;;
3991;SDS011;2010;48.194;16.394;2023-02-12T01:12:27;22.70;;;15.17;;
3991;SDS011;2010;48.194;16.394;2023-02-12T01:14:55;24.30;;;16.27;;
3991;SDS011;2010;48.194;16.394;2023-02-12T01:17:32;24.37;;;16.10;;
3991;SDS011;2010;48.194;16.394;2023-02-12T01:20:02;22.07;;;15.07;;
3991;SDS011;2010;48.194;16.394;2023-02-12T01:22:36;26.27;;;17.57;;
3991;SDS011;2010;48.194;16.394;2023-02-12T01:25:08;23.60;;;15.40;;
3991;SDS011;2010;48.194;16.394;2023-02-12T01:27:48;22.40;;;16.20;;
3991;SDS011;2010;48.194;16.394;2023-02-12T01:30:23;20.30;;;14.67;;
3991;SDS011;2010;48.194;16.394;2023-02-12T01:32:55;26.20;;;14.93;;
3991;SDS011;2010;48.194;16.394;2023-02-12T01:35:27;21.97;;;15.10;;
3991;SDS011;2010;48.194;16.394;2023-02-12T01:37:56;21.50;;;14.73;;
3991;SDS011;2010;48.194;16.394;2023-02-12T01:40:26;20.67;;;14.93;;
3991;SDS011;2010;48.194;16.394;2023-02-12T01:42:59;18.53;;;13.63;;
3991;SDS011;2010;48.194;16.394;2023-02-12T01:45:47;22.80;;;16.20;;
3991;SDS011;2010;48.194;16.394;2023-02-12T01:48:24;20.53;;;14.43;;
3991;SDS011;2010;48.194;16.394;2023-02-12T01:50:56;22.23;;;14.50;;
3991;SDS011;2010;48.194;16.394;2023-02-12T01:53:30;21.60;;;15.00;;
3991;SDS011;2010;48.194;16.394;2023-02-12T01:56:05;22.87;;;15.10;;
3991;SDS011;2010;48.194;16.394;2023-02-12T01:58:38;23.13;;;14.70;;
3991;SDS011;2010;48.194;16.394;2023-02-12T02:01:12;24.63;;;15.70;;
3991;SDS011;2010;48.194;16.394;2023-02-12T02:03:57;21.20;;;14.90;;
3991;SDS011;2010;48.194;16.394;2023-02-12T02:06:31;23.17;;;16.50;;
3991;SDS011;2010;48.194;16.394;2023-02-12T02:09:02;26.43;;;16.10;;
3991;SDS011;2010;48.194;16.394;2023-02-12T02:11:31;21.17;;;14.93;;
3991;SDS011;2010;48.194;16.394;2023-02-12T02:14:24;23.70;;;15.70;;
3991;SDS011;2010;48.194;16.394;2023-02-12T02:20:08;20.87;;;14.57;;
3991;SDS011;2010;48.194;16.394;2023-02-12T02:23:09;21.57;;;13.37;;
3991;SDS011;2010;48.194;16.394;2023-02-12T02:29:20;22.77;;;14.57;;
3991;SDS011;2010;48.194;16.394;2023-02-12T02:32:17;24.70;;;14.73;;
3991;SDS011;2010;48.194;16.394;2023-02-12T02:34:54;26.60;;;15.97;;
3991;SDS011;2010;48.194;16.394;2023-02-12T02:37:27;19.63;;;14.60;;
3991;SDS011;2010;48.194;16.394;2023-02-12T02:40:01;27.40;;;17.27;;
3991;SDS011;2010;48.194;16.394;2023-02-12T02:42:40;27.00;;;16.30;;
3991;SDS011;2010;48.194;16.394;2023-02-12T02:45:15;29.33;;;17.63;;
3991;SDS011;2010;48.194;16.394;2023-02-12T02:47:52;24.97;;;17.70;;
3991;SDS011;2010;48.194;16.394;2023-02-12T02:50:26;23.97;;;16.80;;
3991;SDS011;2010;48.194;16.394;2023-02-12T02:53:05;24.00;;;17.10;;
3991;SDS011;2010;48.194;16.394;2023-02-12T02:55:39;25.63;;;17.60;;
3991;SDS011;2010;48.194;16.394;2023-02-12T02:58:12;21.67;;;15.60;;
3991;SDS011;2010;48.194;16.394;2023-02-12T03:00:44;27.73;;;17.80;;
3991;SDS011;2010;48.194;16.394;2023-02-12T03:03:25;24.13;;;16.47;;
3991;SDS011;2010;48.194;16.394;2023-02-12T03:06:04;27.17;;;19.13;;
3991;SDS011;2010;48.194;16.394;2023-02-12T03:08:48;23.93;;;16.90;;
3991;SDS011;2010;48.194;16.394;2023-02-12T03:11:25;28.10;;;18.07;;
3991;SDS011;2010;48.194;16.394;2023-02-12T03:13:58;26.07;;;18.37;;
3991;SDS011;2010;48.194;16.394;2023-02-12T03:16:33;28.67;;;18.10;;
3991;SDS011;2010;48.194;16.394;2023-02-12T03:19:10;24.73;;;16.90;;
3991;SDS011;2010;48.194;16.394;2023-02-12T03:21:46;27.40;;;17.03;;
3991;SDS011;2010;48.194;16.394;2023-02-12T03:24:25;22.63;;;17.43;;
3991;SDS011;2010;48.194;16.394;2023-02-12T03:27:03;24.23;;;16.67;;
3991;SDS011;2010;48.194;16.394;2023-02-12T03:29:35;26.07;;;18.00;;
3991;SDS011;2010;48.194;16.394;2023-02-12T03:32:12;25.50;;;16.50;;
3991;SDS011;2010;48.194;16.394;2023-02-12T03:34:57;28.07;;;17.20;;
3991;SDS011;2010;48.194;16.394;2023-02-12T03:37:40;28.13;;;18.87;;
3991;SDS011;2010;48.194;16.394;2023-02-12T03:40:14;31.87;;;20.30;;
3991;SDS011;2010;48.194;16.394;2023-02-12T03:42:50;32.03;;;20.30;;
3991;SDS011;2010;48.194;16.394;2023-02-12T03:45:28;29.07;;;19.30;;
3991;SDS011;2010;48.194;16.394;2023-02-12T03:48:08;28.87;;;20.70;;
3991;SDS011;2010;48.194;16.394;2023-02-12T03:50:56;32.80;;;20.50;;
3991;SDS011;2010;48.194;16.394;2023-02-12T03:53:29;31.30;;;22.13;;
3991;SDS011;2010;48.194;16.394;2023-02-12T03:56:01;33.97;;;20.67;;
3991;SDS011;2010;48.194;16.394;2023-02-12T03:58:36;30.63;;;21.07;;
3991;SDS011;2010;48.194;16.394;2023-02-12T04:01:10;34.97;;;21.27;;
3991;SDS011;2010;48.194;16.394;2023-02-12T04:03:47;37.37;;;22.10;;
3991;SDS011;2010;48.194;16.394;2023-02-12T04:06:21;40.30;;;23.10;;
3991;SDS011;2010;48.194;16.394;2023-02-12T04:08:54;31.93;;;21.23;;
3991;SDS011;2010;48.194;16.394;2023-02-12T04:11:28;34.10;;;22.43;;
3991;SDS011;2010;48.194;16.394;2023-02-12T04:14:09;33.83;;;22.27;;
3991;SDS011;2010;48.194;16.394;2023-02-12T04:16:47;33.50;;;21.97;;
3991;SDS011;2010;48.194;16.394;2023-02-12T04:19:33;37.70;;;22.60;;
3991;SDS011;2010;48.194;16.394;2023-02-12T04:25:07;35.93;;;23.23;;
3991;SDS011;2010;48.194;16.394;2023-02-12T04:27:54;34.43;;;21.80;;
3991;SDS011;2010;48.194;16.394;2023-02-12T04:30:26;42.10;;;25.40;;
3991;SDS011;2010;48.194;16.394;2023-02-12T04:32:58;36.73;;;22.10;;
3991;SDS011;2010;48.194;16.394;2023-02-12T04:35:30;37.90;;;22.67;;
3991;SDS011;2010;48.194;16.394;2023-02-12T04:38:09;40.63;;;22.00;;
3991;SDS011;2010;48.194;16.394;2023-02-12T04:40:54;33.67;;;22.33;;
3991;SDS011;2010;48.194;16.394;2023-02-12T04:43:30;34.93;;;21.77;;
3991;SDS011;2010;48.194;16.394;2023-02-12T04:46:05;38.67;;;23.57;;
3991;SDS011;2010;48.194;16.394;2023-02-12T04:48:44;33.07;;;20.93;;
3991;SDS011;2010;48.194;16.394;2023-02-12T04:51:21;35.67;;;21.47;;
3991;SDS011;2010;48.194;16.394;2023-02-12T04:54:04;34.93;;;21.77;;
3991;SDS011;2010;48.194;16.394;2023-02-12T04:56:33;36.60;;;21.80;;
3991;SDS011;2010;48.194;16.394;2023-02-12T04:59:05;35.90;;;21.60;;
3991;SDS011;2010;48.194;16.394;2023-02-12T05:01:37;36.20;;;22.23;;
3991;SDS011;2010;48.194;16.394;2023-02-12T05:04:16;33.23;;;22.83;;
3991;SDS011;2010;48.194;16.394;2023-02-12T05:06:45;33.90;;;22.37;;
3991;SDS011;2010;48.194;16.394;2023-02-12T05:09:25;32.57;;;20.80;;
3991;SDS011;2010;48.194;16.394;2023-02-12T05:12:01;33.07;;;22.73;;
3991;SDS011;2010;48.194;16.394;2023-02-12T05:14:33;34.63;;;22.57;;
3991;SDS011;2010;48.194;16.394;2023-02-12T05:17:03;32.67;;;21.67;;
3991;SDS011;2010;48.194;16.394;2023-02-12T05:19:33;32.33;;;20.77;;
3991;SDS011;2010;48.194;16.394;2023-02-12T05:22:05;36.80;;;24.03;;
3991;SDS011;2010;48.194;16.394;2023-02-12T05:24:48;32.37;;;21.53;;
3991;SDS011;2010;48.194;16.394;2023-02-12T05:27:17;37.27;;;21.37;;
3991;SDS011;2010;48.194;16.394;2023-02-12T05:29:54;32.23;;;22.30;;
3991;SDS011;2010;48.194;16.394;2023-02-12T05:32:27;35.57;;;22.40;;
3991;SDS011;2010;48.194;16.394;2023-02-12T05:34:59;33.20;;;21.80;;
3991;SDS011;2010;48.194;16.394;2023-02-12T05:37:32;36.07;;;22.83;;
3991;SDS011;2010;48.194;16.394;2023-02-12T05:40:18;31.60;;;21.50;;
3991;SDS011;2010;48.194;16.394;2023-02-12T05:42:51;33.83;;;21.40;;
3991;SDS011;2010;48.194;16.394;2023-02-12T05:45:21;33.93;;;22.47;;
3991;SDS011;2010;48.194;16.394;2023-02-12T05:47:54;35.63;;;23.73;;
3991;SDS011;2010;48.194;16.394;2023-02-12T05:50:25;34.80;;;22.10;;
3991;SDS011;2010;48.194;16.394;2023-02-12T05:53:08;41.37;;;24.83;;
3991;SDS011;2010;48.194;16.394;2023-02-12T05:55:45;36.37;;;22.53;;
3991;SDS011;2010;48.194;16.394;2023-02-12T05:58:16;36.17;;;22.20;;
3991;SDS011;2010;48.194;16.394;2023-02-12T06:00:49;32.83;;;21.57;;
3991;SDS011;2010;48.194;16.394;2023-02-12T06:03:20;38.30;;;23.33;;
3991;SDS011;2010;48.194;16.394;2023-02-12T06:05:50;34.70;;;23.03;;
3991;SDS011;2010;48.194;16.394;2023-02-12T06:08:20;36.30;;;23.43;;
3991;SDS011;2010;48.194;16.394;2023-02-12T06:10:51;34.60;;;23.27;;
3991;SDS011;2010;48.194;16.394;2023-02-12T06:13:31;37.03;;;24.30;;
3991;SDS011;2010;48.194;16.394;2023-02-12T06:16:03;38.30;;;24.30;;
3991;SDS011;2010;48.194;16.394;2023-02-12T06:18:35;35.73;;;23.17;;
3991;SDS011;2010;48.194;16.394;2023-02-12T06:21:06;37.70;;;24.40;;
3991;SDS011;2010;48.194;16.394;2023-02-12T06:23:38;37.80;;;25.03;;
3991;SDS011;2010;48.194;16.394;2023-02-12T06:26:19;41.37;;;25.33;;
3991;SDS011;2010;48.194;16.394;2023-02-12T06:28:49;36.13;;;23.57;;
3991;SDS011;2010;48.194;16.394;2023-02-12T06:31:18;35.37;;;24.63;;
3991;SDS011;2010;48.194;16.394;2023-02-12T06:33:51;35.77;;;24.17;;
3991;SDS011;2010;48.194;16.394;2023-02-12T06:36:30;37.10;;;24.50;;
3991;SDS011;2010;48.194;16.394;2023-02-12T06:39:02;38.93;;;24.27;;
3991;SDS011;2010;48.194;16.394;2023-02-12T06:41:43;40.93;;;25.53;;
3991;SDS011;2010;48.194;16.394;2023-02-12T06:44:15;42.47;;;26.60;;
3991;SDS011;2010;48.194;16.394;2023-02-12T06:46:47;39.10;;;26.40;;
3991;SDS011;2010;48.194;16.394;2023-02-12T06:49:18;35.53;;;24.10;;
3991;SDS011;2010;48.194;16.394;2023-02-12T06:51:55;36.80;;;23.43;;
3991;SDS011;2010;48.194;16.394;2023-02-12T06:54:24;33.40;;;23.40;;
3991;SDS011;2010;48.194;16.394;2023-02-12T06:56:58;38.97;;;23.47;;
3991;SDS011;2010;48.194;16.394;2023-02-12T06:59:27;34.90;;;22.83;;
3991;SDS011;2010;48.194;16.394;2023-02-12T07:01:59;32.10;;;24.03;;
3991;SDS011;2010;48.194;16.394;2023-02-12T07:04:30;36.03;;;23.50;;
3991;SDS011;2010;48.194;16.394;2023-02-12T07:07:02;37.73;;;22.40;;
3991;SDS011;2010;48.194;16.394;2023-02-12T07:09:39;31.80;;;22.80;;
3991;SDS011;2010;48.194;16.394;2023-02-12T07:12:11;38.30;;;21.93;;
3991;SDS011;2010;48.194;16.394;2023-02-12T07:14:43;35.50;;;21.27;;
3991;SDS011;2010;48.194;16.394;2023-02-12T07:17:15;39.20;;;22.20;;
3991;SDS011;2010;48.194;16.394;2023-02-12T07:19:47;35.77;;;23.90;;
3991;SDS011;2010;48.194;16.394;2023-02-12T07:22:18;31.27;;;22.43;;
3991;SDS011;2010;48.194;16.394;2023-02-12T07:24:56;32.07;;;20.80;;
3991;SDS011;2010;48.194;16.394;2023-02-12T07:27:35;34.20;;;22.47;;
3991;SDS011;2010;48.194;16.394;2023-02-12T07:30:05;30.67;;;21.07;;
3991;SDS011;2010;48.194;16.394;2023-02-12T07:32:35;31.20;;;20.40;;
3991;SDS011;2010;48.194;16.394;2023-02-12T07:35:04;33.60;;;20.97;;
3991;SDS011;2010;48.194;16.394;2023-02-12T07:37:34;27.80;;;19.30;;
3991;SDS011;2010;48.194;16.394;2023-02-12T07:40:10;31.33;;;19.67;;
3991;SDS011;2010;48.194;16.394;2023-02-12T07:42:50;32.03;;;21.13;;
3991;SDS011;2010;48.194;16.394;2023-02-12T07:45:24;34.00;;;20.90;;
3991;SDS011;2010;48.194;16.394;2023-02-12T07:47:56;27.23;;;18.53;;
3991;SDS011;2010;48.194;16.394;2023-02-12T07:50:28;29.70;;;20.27;;
3991;SDS011;2010;48.194;16.394;2023-02-12T07:52:57;29.23;;;18.60;;
3991;SDS011;2010;48.194;16.394;2023-02-12T07:55:28;26.87;;;19.10;;
3991;SDS011;2010;48.194;16.394;2023-02-12T07:58:00;27.60;;;19.13;;
3991;SDS011;2010;48.194;16.394;2023-02-12T08:00:32;28.97;;;21.03;;
3991;SDS011;2010;48.194;16.394;2023-02-12T08:03:03;29.50;;;20.43;;
3991;SDS011;2010;48.194;16.394;2023-02-12T08:05:33;29.13;;;19.80;;
3991;SDS011;2010;48.194;16.394;2023-02-12T08:08:02;27.93;;;20.47;;
3991;SDS011;2010;48.194;16.394;2023-02-12T08:10:32;28.27;;;19.63;;
3991;SDS011;2010;48.194;16.394;2023-02-12T08:13:11;31.30;;;20.37;;
3991;SDS011;2010;48.194;16.394;2023-02-12T08:15:43;31.00;;;20.00;;
3991;SDS011;2010;48.194;16.394;2023-02-12T08:18:12;27.83;;;18.90;;
3991;SDS011;2010;48.194;16.394;2023-02-12T08:20:44;31.47;;;20.10;;
3991;SDS011;2010;48.194;16.394;2023-02-12T08:23:14;29.07;;;20.27;;
3991;SDS011;2010;48.194;16.394;2023-02-12T08:25:46;29.10;;;19.43;;
3991;SDS011;2010;48.194;16.394;2023-02-12T08:28:21;30.77;;;19.77;;
3991;SDS011;2010;48.194;16.394;2023-02-12T08:30:58;26.40;;;18.07;;
3991;SDS011;2010;48.194;16.394;2023-02-12T08:33:31;28.53;;;19.37;;
3991;SDS011;2010;48.194;16.394;2023-02-12T08:36:05;27.80;;;17.40;;
3991;SDS011;2010;48.194;16.394;2023-02-12T08:38:36;33.10;;;22.33;;
3991;SDS011;2010;48.194;16.394;2023-02-12T08:41:08;31.80;;;21.43;;
3991;SDS011;2010;48.194;16.394;2023-02-12T08:43:49;24.50;;;18.20;;
3991;SDS011;2010;48.194;16.394;2023-02-12T08:46:20;28.97;;;17.17;;
3991;SDS011;2010;48.194;16.394;2023-02-12T08:48:51;25.17;;;17.43;;
3991;SDS011;2010;48.194;16.394;2023-02-12T08:51:30;24.33;;;17.37;;
3991;SDS011;2010;48.194;16.394;2023-02-12T08:54:00;26.30;;;17.23;;
3991;SDS011;2010;48.194;16.394;2023-02-12T08:56:32;30.47;;;16.50;;
3991;SDS011;2010;48.194;16.394;2023-02-12T08:59:04;25.77;;;17.20;;
3991;SDS011;2010;48.194;16.394;2023-02-12T09:01:44;23.53;;;17.33;;
3991;SDS011;2010;48.194;16.394;2023-02-12T09:04:15;26.13;;;16.50;;
3991;SDS011;2010;48.194;16.394;2023-02-12T09:06:56;23.20;;;15.40;;
3991;SDS011;2010;48.194;16.394;2023-02-12T09:09:25;23.73;;;15.67;;
3991;SDS011;2010;48.194;16.394;2023-02-12T09:11:55;21.63;;;16.23;;
3991;SDS011;2010;48.194;16.394;2023-02-12T09:14:33;26.73;;;15.93;;
3991;SDS011;2010;48.194;16.394;2023-02-12T09:17:06;25.40;;;17.13;;
3991;SDS011;2010;48.194;16.394;2023-02-12T09:19:35;29.33;;;16.30;;
3991;SDS011;2010;48.194;16.394;2023-02-12T09:22:06;22.67;;;15.03;;
3991;SDS011;2010;48.194;16.394;2023-02-12T09:24:35;18.80;;;14.20;;
3991;SDS011;2010;48.194;16.394;2023-02-12T09:27:07;23.10;;;14.50;;
3991;SDS011;2010;48.194;16.394;2023-02-12T09:29:42;20.67;;;15.40;;
3991;SDS011;2010;48.194;16.394;2023-02-12T09:32:11;21.70;;;14.37;;
3991;SDS011;2010;48.194;16.394;2023-02-12T09:34:42;23.27;;;15.70;;
3991;SDS011;2010;48.194;16.394;2023-02-12T09:37:13;19.00;;;13.57;;
3991;SDS011;2010;48.194;16.394;2023-02-12T09:39:58;20.47;;;13.97;;
3991;SDS011;2010;48.194;16.394;2023-02-12T09:42:44;21.63;;;14.57;;
3991;SDS011;2010;48.194;16.394;2023-02-12T09:45:59;23.03;;;13.63;;
3991;SDS011;2010;48.194;16.394;2023-02-12T09:48:42;21.20;;;13.27;;
3991;SDS011;2010;48.194;16.394;2023-02-12T09:51:20;21.90;;;13.43;;
3991;SDS011;2010;48.194;16.394;2023-02-12T09:53:56;17.13;;;12.27;;
3991;SDS011;2010;48.194;16.394;2023-02-12T09:56:34;17.50;;;12.10;;
3991;SDS011;2010;48.194;16.394;2023-02-12T09:59:05;18.43;;;12.00;;
3991;SDS011;2010;48.194;16.394;2023-02-12T10:01:39;19.20;;;13.00;;
3991;SDS011;2010;48.194;16.394;2023-02-12T10:04:16;16.90;;;13.23;;
3991;SDS011;2010;48.194;16.394;2023-02-12T10:06:56;16.40;;;12.43;;
3991;SDS011;2010;48.194;16.394;2023-02-12T10:09:38;25.47;;;13.00;;
3991;SDS011;2010;48.194;16.394;2023-02-12T10:12:20;23.70;;;13.67;;
3991;SDS011;2010;48.194;16.394;2023-02-12T10:15:02;16.80;;;12.13;;
3991;SDS011;2010;48.194;16.394;2023-02-12T10:17:46;21.27;;;12.00;;
3991;SDS011;2010;48.194;16.394;2023-02-12T10:26:30;16.20;;;12.10;;
3991;SDS011;2010;48.194;16.394;2023-02-12T10:29:04;20.80;;;13.43;;
3991;SDS011;2010;48.194;16.394;2023-02-12T10:34:35;19.87;;;13.80;;
3991;SDS011;2010;48.194;16.394;2023-02-12T10:37:11;16.20;;;11.13;;
3991;SDS011;2010;48.194;16.394;2023-02-12T10:39:53;16.10;;;10.93;;
3991;SDS011;2010;48.194;16.394;2023-02-12T10:45:15;17.10;;;11.90;;
3991;SDS011;2010;48.194;16.394;2023-02-12T10:47:47;18.03;;;11.77;;
3991;SDS011;2010;48.194;16.394;2023-02-12T10:50:32;14.20;;;10.50;;
3991;SDS011;2010;48.194;16.394;2023-02-12T10:53:33;15.70;;;10.47;;
3991;SDS011;2010;48.194;16.394;2023-02-12T10:56:15;15.93;;;10.87;;
3991;SDS011;2010;48.194;16.394;2023-02-12T10:58:51;16.43;;;11.03;;
3991;SDS011;2010;48.194;16.394;2023-02-12T11:01:29;20.80;;;10.90;;
3991;SDS011;2010;48.194;16.394;2023-02-12T11:06:58;11.80;;;9.17;;
3991;SDS011;2010;48.194;16.394;2023-02-12T11:09:36;14.10;;;9.70;;
3991;SDS011;2010;48.194;16.394;2023-02-12T11:12:20;16.17;;;8.43;;
3991;SDS011;2010;48.194;16.394;2023-02-12T11:15:05;14.20;;;9.70;;
3991;SDS011;2010;48.194;16.394;2023-02-12T11:17:55;14.70;;;9.20;;
3991;SDS011;2010;48.194;16.394;2023-02-12T11:20:37;14.37;;;10.80;;
3991;SDS011;2010;48.194;16.394;2023-02-12T11:26:02;13.50;;;9.60;;
3991;SDS011;2010;48.194;16.394;2023-02-12T11:28:34;15.00;;;10.80;;
3991;SDS011;2010;48.194;16.394;2023-02-12T11:31:19;18.63;;;11.17;;
3991;SDS011;2010;48.194;16.394;2023-02-12T11:34:06;16.73;;;11.17;;
3991;SDS011;2010;48.194;16.394;2023-02-12T11:36:42;16.73;;;9.87;;
3991;SDS011;2010;48.194;16.394;2023-02-12T11:39:25;14.70;;;9.93;;
3991;SDS011;2010;48.194;16.394;2023-02-12T11:41:59;15.23;;;9.63;;
3991;SDS011;2010;48.194;16.394;2023-02-12T11:44:41;12.93;;;9.67;;
3991;SDS011;2010;48.194;16.394;2023-02-12T11:47:31;13.57;;;9.10;;
3991;SDS011;2010;48.194;16.394;2023-02-12T11:50:05;14.53;;;9.60;;
3991;SDS011;2010;48.194;16.394;2023-02-12T11:52:47;13.30;;;10.33;;
3991;SDS011;2010;48.194;16.394;2023-02-12T11:55:26;13.87;;;9.67;;
3991;SDS011;2010;48.194;16.394;2023-02-12T11:58:04;14.63;;;9.70;;
3991;SDS011;2010;48.194;16.394;2023-02-12T12:00:59;11.80;;;8.60;;
3991;SDS011;2010;48.194;16.394;2023-02-12T12:03:38;14.53;;;8.90;;
3991;SDS011;2010;48.194;16.394;2023-02-12T12:06:21;14.40;;;9.00;;
3991;SDS011;2010;48.194;16.394;2023-02-12T12:09:09;16.37;;;11.70;;
3991;SDS011;2010;48.194;16.394;2023-02-12T12:11:52;15.60;;;11.00;;
3991;SDS011;2010;48.194;16.394;2023-02-12T12:14:36;15.77;;;11.07;;
3991;SDS011;2010;48.194;16.394;2023-02-12T12:17:22;15.10;;;10.13;;
3991;SDS011;2010;48.194;16.394;2023-02-12T12:20:20;14.07;;;10.03;;
3991;SDS011;2010;48.194;16.394;2023-02-12T12:22:56;11.80;;;9.00;;
3991;SDS011;2010;48.194;16.394;2023-02-12T12:25:28;13.50;;;10.30;;
3991;SDS011;2010;48.194;16.394;2023-02-12T12:28:09;18.60;;;12.03;;
3991;SDS011;2010;48.194;16.394;2023-02-12T12:31:00;14.70;;;11.00;;
3991;SDS011;2010;48.194;16.394;2023-02-12T12:33:45;16.10;;;10.87;;
3991;SDS011;2010;48.194;16.394;2023-02-12T12:39:31;16.07;;;9.97;;
3991;SDS011;2010;48.194;16.394;2023-02-12T12:42:12;13.40;;;9.60;;
3991;SDS011;2010;48.194;16.394;2023-02-12T12:45:09;19.00;;;11.67;;
3991;SDS011;2010;48.194;16.394;2023-02-12T12:47:59;21.23;;;13.10;;
3991;SDS011;2010;48.194;16.394;2023-02-12T12:50:43;20.17;;;12.97;;
3991;SDS011;2010;48.194;16.394;2023-02-12T12:53:37;13.63;;;9.90;;
3991;SDS011;2010;48.194;16.394;2023-02-12T12:56:34;13.43;;;9.20;;
3991;SDS011;2010;48.194;16.394;2023-02-12T12:59:23;13.70;;;10.80;;
3991;SDS011;2010;48.194;16.394;2023-02-12T13:02:31;20.17;;;11.67;;
3991;SDS011;2010;48.194;16.394;2023-02-12T13:09:00;23.73;;;15.60;;
3991;SDS011;2010;48.194;16.394;2023-02-12T13:11:41;23.53;;;15.10;;
3991;SDS011;2010;48.194;16.394;2023-02-12T13:14:27;21.47;;;14.00;;
3991;SDS011;2010;48.194;16.394;2023-02-12T13:17:09;20.67;;;14.07;;
3991;SDS011;2010;48.194;16.394;2023-02-12T13:22:48;18.73;;;11.90;;
3991;SDS011;2010;48.194;16.394;2023-02-12T13:25:29;17.37;;;11.63;;
3991;SDS011;2010;48.194;16.394;2023-02-12T13:28:08;20.83;;;12.53;;
3991;SDS011;2010;48.194;16.394;2023-02-12T13:30:48;17.67;;;12.00;;
3991;SDS011;2010;48.194;16.394;2023-02-12T13:33:28;16.07;;;11.37;;
3991;SDS011;2010;48.194;16.394;2023-02-12T13:36:23;17.83;;;11.63;;
3991;SDS011;2010;48.194;16.394;2023-02-12T13:38:57;16.43;;;12.30;;
3991;SDS011;2010;48.194;16.394;2023-02-12T13:42:12;17.83;;;11.37;;
3991;SDS011;2010;48.194;16.394;2023-02-12T13:44:54;17.77;;;11.63;;
3991;SDS011;2010;48.194;16.394;2023-02-12T13:47:36;18.70;;;11.20;;
3991;SDS011;2010;48.194;16.394;2023-02-12T13:50:32;19.20;;;11.47;;
3991;SDS011;2010;48.194;16.394;2023-02-12T13:56:06;22.80;;;13.50;;
3991;SDS011;2010;48.194;16.394;2023-02-12T13:58:49;21.40;;;13.20;;
3991;SDS011;2010;48.194;16.394;2023-02-12T14:04:23;21.77;;;13.80;;
3991;SDS011;2010;48.194;16.394;2023-02-12T14:10:03;23.83;;;14.83;;
3991;SDS011;2010;48.194;16.394;2023-02-12T14:12:36;22.23;;;13.30;;
3991;SDS011;2010;48.194;16.394;2023-02-12T14:15:19;24.67;;;15.90;;
3991;SDS011;2010;48.194;16.394;2023-02-12T14:18:11;24.13;;;14.73;;
3991;SDS011;2010;48.194;16.394;2023-02-12T14:33:23;22.07;;;14.67;;
3991;SDS011;2010;48.194;16.394;2023-02-12T14:36:13;21.77;;;14.07;;
3991;SDS011;2010;48.194;16.394;2023-02-12T14:39:27;25.47;;;16.03;;
3991;SDS011;2010;48.194;16.394;2023-02-12T14:45:25;27.37;;;15.20;;
3991;SDS011;2010;48.194;16.394;2023-02-12T14:48:03;20.83;;;14.63;;
3991;SDS011;2010;48.194;16.394;2023-02-12T14:50:38;24.50;;;15.27;;
3991;SDS011;2010;48.194;16.394;2023-02-12T14:53:24;22.80;;;15.50;;
3991;SDS011;2010;48.194;16.394;2023-02-12T14:56:03;22.10;;;14.20;;
3991;SDS011;2010;48.194;16.394;2023-02-12T14:58:51;27.30;;;16.03;;
3991;SDS011;2010;48.194;16.394;2023-02-12T15:01:28;26.00;;;16.60;;
3991;SDS011;2010;48.194;16.394;2023-02-12T15:04:08;26.57;;;16.80;;
3991;SDS011;2010;48.194;16.394;2023-02-12T15:06:47;31.77;;;19.50;;
3991;SDS011;2010;48.194;16.394;2023-02-12T15:09:24;22.57;;;14.80;;
3991;SDS011;2010;48.194;16.394;2023-02-12T15:12:09;27.90;;;17.17;;
3991;SDS011;2010;48.194;16.394;2023-02-12T15:14:49;27.43;;;16.77;;
3991;SDS011;2010;48.194;16.394;2023-02-12T15:17:26;23.80;;;16.83;;
3991;SDS011;2010;48.194;16.394;2023-02-12T15:20:12;26.87;;;17.40;;
3991;SDS011;2010;48.194;16.394;2023-02-12T15:26:11;25.60;;;16.53;;
3991;SDS011;2010;48.194;16.394;2023-02-12T15:28:45;24.80;;;16.23;;
3991;SDS011;2010;48.194;16.394;2023-02-12T15:31:19;28.90;;;16.73;;
3991;SDS011;2010;48.194;16.394;2023-02-12T15:34:02;28.47;;;17.80;;
3991;SDS011;2010;48.194;16.394;2023-02-12T15:36:33;26.30;;;17.17;;
3991;SDS011;2010;48.194;16.394;2023-02-12T15:39:13;28.47;;;17.47;;
3991;SDS011;2010;48.194;16.394;2023-02-12T15:41:50;27.33;;;17.97;;
3991;SDS011;2010;48.194;16.394;2023-02-12T15:44:24;28.40;;;17.60;;
3991;SDS011;2010;48.194;16.394;2023-02-12T15:47:00;30.30;;;16.50;;
3991;SDS011;2010;48.194;16.394;2023-02-12T15:49:49;30.47;;;17.90;;
3991;SDS011;2010;48.194;16.394;2023-02-12T15:52:23;27.43;;;17.30;;
3991;SDS011;2010;48.194;16.394;2023-02-12T15:55:02;35.70;;;19.30;;
3991;SDS011;2010;48.194;16.394;2023-02-12T15:57:37;27.80;;;18.20;;
3991;SDS011;2010;48.194;16.394;2023-02-12T16:00:23;29.47;;;19.23;;
3991;SDS011;2010;48.194;16.394;2023-02-12T16:03:00;22.97;;;16.10;;
3991;SDS011;2010;48.194;16.394;2023-02-12T16:05:47;28.23;;;16.90;;
3991;SDS011;2010;48.194;16.394;2023-02-12T16:08:19;31.80;;;18.40;;
3991;SDS011;2010;48.194;16.394;2023-02-12T16:10:52;27.77;;;18.63;;
3991;SDS011;2010;48.194;16.394;2023-02-12T16:13:43;26.07;;;15.87;;
3991;SDS011;2010;48.194;16.394;2023-02-12T16:16:29;29.90;;;17.67;;
3991;SDS011;2010;48.194;16.394;2023-02-12T16:19:19;30.03;;;16.97;;
3991;SDS011;2010;48.194;16.394;2023-02-12T16:21:55;29.63;;;17.03;;
3991;SDS011;2010;48.194;16.394;2023-02-12T16:24:39;26.50;;;16.90;;
3991;SDS011;2010;48.194;16.394;2023-02-12T16:27:16;28.80;;;16.40;;
3991;SDS011;2010;48.194;16.394;2023-02-12T16:29:57;28.60;;;17.20;;
3991;SDS011;2010;48.194;16.394;2023-02-12T16:32:34;30.40;;;18.70;;
3991;SDS011;2010;48.194;16.394;2023-02-12T16:35:25;27.20;;;18.53;;
3991;SDS011;2010;48.194;16.394;2023-02-12T16:41:21;31.60;;;19.10;;
3991;SDS011;2010;48.194;16.394;2023-02-12T16:47:11;31.50;;;18.73;;